Arp, Texas
Current Conditions -  °F | °C
As of 9:35 AM on Friday 28 Nov 2014 (Local Time) from KRFI Reporting Station
Clear Clear  
Wind Chill: 51°   Ceiling: Unl
Heat Index: 51°   Visibility: 10mi
Dew Point: 37°   Wind: 9mph
Humidity: 59%   Direction: 180°S
Pressure: 30.34"   Gusts: NA
Location:  32.23°N, 95.06°W
Report Text: KRFI 281535Z AUTO 18008KT 10SM CLR 10/03 A3034 RMK AO2 T01030025
Loading
Personal Weather Stations






























Interactive Weather Map New forecast layout! Learn more

10-Day Weather Forecast

Advertisements
Track Severe Weather on mobile